Aeroporto :
LOGIN :

Iscrizione | Disclaimer

   EN    FR    IT 

 










Sommario :    VFR   VFR Marginale   IFR   IFR Intensivo   IFR Molto Intensivo
Visibilità : 
Base nubi : 
>= 8 km
>= 3000ft
5 / 8 km
1000 / 3000 ft
1500m / 5 km
500 / 1000 ft
800 / 1500m
200 / 500 ft
< 800m
< 200 ft
Simboli :   Temporali  Nebbia  Neve Forte  Precipitazioni Forti  Vento > 20 kt
SIGMETs :   Varie  Temporali  Ghiacco  Turbolenza  Onda orograficha  Ceneri Vulcaniche






- Altitudine del aeroporto : 79 ft
- Codice IATA : NSY


LICZ - Sigonella (Mil) Catania

ULTIMO METAR :
  • 221155Z 28005KT 9999 FEW030 20/13 Q1015 RMK FEW VIS MIN 9999 WIND THR28 27005KT WIND THR10 /////KT A3000 BLU

METARs OBSOLETI :
  • 221055Z 26006KT CAVOK 20/14 Q1016 RMK SKC VIS MIN 9999 WIND THR28 26006KT WIND THR10 /////KT A3002 BLU
  • 220955Z 31004KT CAVOK 17/14 Q1017 RMK FEW FEW200 VIS MIN 9999 WIND THR28 30004KT WIND THR10 /////KT A3005 BLU

TAF TAF LICZ
Valido dal 22 a 06 ore il 23 a 06 ore UTC


220500Z 2206/2306 26005KT CAVOK
BECMG 2216/2218 9999 SCT030



MetMap, La meteo Aeronautica in un colpo d'occhio ! - Copyright ORBIFLY Dicembre 2007 - Disclaimer

ORBIFLY MET'MAP TEAM :

Programmazione e sviluppo : Alexandra Zaïnal
Concezione e sviluppo : Baudouin d'Aumeries
Co-Programmazione e sviluppo : Marc-Olivier Méhu
Supporto tecnico e logistico : Manuel Goepfert
Aiuto per la traduzione : Arnaldo La Scala

Contatto : metmap@orbifly.com




FONTI E CREDITI :

   NOAA